• Join FlightAware (Why Join?)
  • Login
  • US Flag GB Flag 
03:39 EDT


 

Airport Tracker/Info


-or-


 

Live Flight TrackerFlight Track Log ✈ DAL268 ✈ 19-Apr-2013 ✈ KATL - KJFK

Flight Track Log - Related Links

Times and Time Zones

All times are in EDT time to prevent confusion due to time zone crossing. See the DAL268 flight status page for this flight to view local times or setup timezone preferences in your user account.

Time Position Orientation Groundspeed Altitude Reporting Facility
EDT Latitude Longitude Course Direction KTS MPH feet Rate Location/Type
21:15 33.6370 -84.4690 271° West 164 189 2,600  Level FlightAware
21:15 33.6380 -84.4920 273° West 195 224 3,000 1,440 Climbing FlightAware
21:16 33.6440 -84.5210 284° West 227 261 3,700 3,120 Climbing FlightAware
21:16 33.6670 -84.5500 314° West 236 272 5,600 3,360 Climbing FlightAware
21:17 33.7150 -84.5830 330° Northwest 281 323 8,200 3,060 Climbing FlightAware
21:18 33.7780 -84.5810 North 307 353 10,500 2,280 Climbing FlightAware
21:18 33.8420 -84.5650 12° North 382 440 11,500 2,160 Climbing FlightAware
21:19 33.9030 -84.5450 15° North 403 464 13,200 3,240 Climbing FlightAware
21:20 34.0010 -84.5150 14° North 416 479 16,100 3,360 Climbing FlightAware
21:21 34.0780 -84.4910 14° North 431 496 18,300 2,820 Climbing FlightAware
21:21 34.1680 -84.4640 14° North 465 535 20,100 2,580 Climbing FlightAware
21:22 34.2027 -84.4529 15° North 473 544 20,800 2,580 Climbing FlightAware ADS-B
21:22 34.2545 -84.4370 14° North 487 560 21,700 2,100 Climbing FlightAware ADS-B
21:22 34.3079 -84.4254 10° North 493 567 22,500 1,980 Climbing FlightAware ADS-B
21:23 34.3812 -84.4207 North 498 573 23,600 2,040 Climbing FlightAware ADS-B
21:23 34.4553 -84.4189 North 513 590 24,700 2,100 Climbing FlightAware ADS-B
21:24 34.5541 -84.4172 North 519 597 26,200 2,160 Climbing FlightAware ADS-B
21:25 34.6301 -84.4159 North 535 616 27,300 2,100 Climbing FlightAware ADS-B
21:25 34.7085 -84.4143 North 544 626 28,400 1,980 Climbing FlightAware ADS-B
21:26 34.7855 -84.4128 North 551 634 29,400 1,560 Climbing FlightAware ADS-B
21:26 34.8633 -84.4110 North 557 641 30,000 540 Climbing FlightAware ADS-B
21:27 34.9446 -84.4091 North 555 639 30,000  Level FlightAware ADS-B
21:27 35.0348 -84.4071 North 553 636 30,000  Level FlightAware ADS-B
21:28 35.1126 -84.4052 North 550 633 30,000  Level FlightAware ADS-B
21:28 35.1891 -84.4033 North 550 633 30,000  Level FlightAware ADS-B
21:29 35.2674 -84.4014 North 550 633 30,000 660 Level FlightAware ADS-B
21:29 35.3455 -84.3997 North 560 644 30,700 1,560 Climbing FlightAware ADS-B
21:30 35.4245 -84.3978 North 566 651 31,600 2,160 Climbing FlightAware ADS-B
21:30 35.5032 -84.3958 North 562 647 32,900 2,280 Climbing FlightAware ADS-B
21:31 35.5815 -84.3937 North 558 642 33,900 1,080 Climbing FlightAware ADS-B
21:31 35.6598 -84.3918 North 565 650 34,000 60 Climbing FlightAware ADS-B
21:32 35.7406 -84.3897 North 566 651 34,000  Level FlightAware ADS-B
21:32 35.8195 -84.3877 North 567 652 34,000  Level FlightAware ADS-B
21:33 35.9021 -84.3856 North 568 654 34,000 540 Level FlightAware ADS-B
21:33 36.0078 -84.3831 North 570 656 34,700 780 Climbing FlightAware ADS-B
21:34 36.0906 -84.3810 North 572 658 35,000 720 Climbing FlightAware ADS-B
21:34 36.1708 -84.3789 North 570 656 35,500 900 Climbing FlightAware ADS-B
21:35 36.2607 -84.3765 North 563 648 36,000 360 Climbing FlightAware ADS-B
21:36 36.3392 -84.3747 North 562 647 35,900  Descending FlightAware ADS-B
21:36 36.4396 -84.3721 North 562 647 36,000  Climbing FlightAware ADS-B
21:37 36.5179 -84.3700 North 561 646 35,900  Descending FlightAware ADS-B
21:37 36.5977 -84.3679 North 560 644 36,000 60 Climbing FlightAware ADS-B
21:38 36.6769 -84.3659 North 562 647 36,000  Level FlightAware ADS-B
21:38 36.7562 -84.3638 North 563 648 36,000  Level FlightAware ADS-B
21:39 36.8390 -84.3620 North 563 648 36,000  Level FlightAware
21:39 36.8481 -84.3614 North 563 648 36,000  Level FlightAware ADS-B
21:39 36.9430 -84.3590 North 565 650 36,000  Level FlightAware
21:40 36.9662 -84.3583 North 564 649 36,000  Level FlightAware ADS-B
21:40 37.0596 -84.3558 North 565 650 36,000  Level FlightAware ADS-B
21:41 37.1430 -84.3537 North 565 650 36,000  Level FlightAware ADS-B
21:41 37.2378 -84.3509 North 564 649 36,000  Level FlightAware ADS-B
21:42 37.3760 -84.3480 North 564 649 36,000  Level FlightAware
21:43 37.4650 -84.3460 North 564 649 36,000  Level FlightAware
21:44 37.5890 -84.3420 North 562 647 36,000  Level FlightAware
21:44 37.7120 -84.3380 North 562 647 36,000  Level FlightAware
21:45 37.8190 -84.3350 North 561 646 36,000  Level FlightAware
21:46 37.9370 -84.3320 North 560 644 36,000  Level FlightAware
21:46 38.0390 -84.3300 North 561 646 36,000  Level FlightAware
21:47 38.1440 -84.3270 North 561 646 36,000  Level FlightAware
21:48 38.2640 -84.3230 North 562 647 36,000 -120 Level FlightAware
21:49 38.3650 -84.3210 North 562 647 35,900  Descending FlightAware
21:49 38.4860 -84.3180 North 561 646 36,000 60 Climbing FlightAware
21:50 38.5740 -84.3160 North 561 646 36,000  Level FlightAware
21:51 38.6850 -84.3130 North 561 646 36,000  Level FlightAware
21:52 38.7730 -84.3110 North 561 646 36,000  Level FlightAware
21:52 38.8610 -84.3090 North 561 646 36,000  Level FlightAware
21:53 38.9490 -84.3070 North 561 646 36,000  Level FlightAware
21:54 39.0600 -84.3050 North 561 646 36,000  Level FlightAware
21:54 39.1480 -84.3030 North 561 646 36,000  Level FlightAware
21:55 39.2360 -84.3010 North 561 646 36,000  Level FlightAware
21:56 39.3240 -84.2990 North 561 646 36,000  Level FlightAware
21:56 39.4130 -84.2970 North 561 646 36,000 660 Level FlightAware
21:57 39.6910 -84.1450 23° Northeast 563 648 37,000 660 Climbing FlightAware
21:58 39.8170 -84.1240 North 559 643 37,000  Level FlightAware
21:59 39.9520 -84.1020 North 550 633 37,000  Level FlightAware
22:00 40.0690 -84.0780 North 541 623 37,000  Level FlightAware
22:00 40.1640 -84.0580 North 540 621 37,000  Level FlightAware
22:01 40.2630 -84.0360 10° North 538 619 37,000  Level FlightAware
22:02 40.3750 -84.0120 North 537 618 37,000  Level FlightAware
22:02 40.4680 -83.9570 24° Northeast 551 634 37,000 -120 Level FlightAware
22:03 40.5400 -83.8460 49° Northeast 548 631 36,900  Descending FlightAware
22:04 40.5950 -83.7340 57° Northeast 547 629 37,000 60 Climbing FlightAware
22:04 40.6490 -83.6230 57° Northeast 545 627 37,000 540 Level FlightAware
22:05 40.7110 -83.4930 58° Northeast 550 633 37,800 900 Climbing FlightAware
22:06 40.7650 -83.3820 57° Northeast 559 643 38,300 480 Climbing FlightAware
22:06 40.8240 -83.2640 57° Northeast 575 662 38,500 420 Climbing FlightAware
22:07 40.8870 -83.1390 56° Northeast 586 674 38,900 300 Climbing FlightAware
22:08 40.9520 -83.0090 56° Northeast 585 673 39,000 60 Climbing FlightAware
22:09 41.0120 -82.8890 56° Northeast 582 670 39,000  Level FlightAware
22:09 41.0760 -82.7590 57° Northeast 583 671 39,000  Level FlightAware
22:10 41.1330 -82.6450 56° Northeast 586 674 39,000  Level FlightAware
22:11 41.2020 -82.5040 57° Northeast 587 676 39,000  Level FlightAware
22:11 41.2620 -82.3840 56° Northeast 588 677 39,000  Level FlightAware
22:12 41.3180 -82.2340 64° Northeast 580 667 39,000  Level FlightAware
22:13 41.3460 -82.1060 74° East 572 658 39,000  Level FlightAware
22:13 41.3670 -81.9680 78° East 572 658 39,000  Level FlightAware
22:14 41.3900 -81.8100 79° East 574 661 39,000 -120 Level FlightAware
22:15 41.4100 -81.6690 79° East 574 661 38,900 -120 Descending FlightAware
22:16 41.4320 -81.5140 79° East 574 661 38,900 60 Level FlightAware
22:16 41.4510 -81.3750 80° East 571 657 39,000 60 Climbing FlightAware
22:17 41.4700 -81.2340 80° East 571 657 39,000  Level FlightAware
22:18 41.4910 -81.0780 80° East 570 656 39,000  Level FlightAware
22:18 41.5090 -80.9410 80° East 570 656 39,000  Level FlightAware
22:19 41.5300 -80.7860 80° East 570 656 39,000  Level FlightAware
22:20 41.5480 -80.6470 80° East 571 657 39,000  Level FlightAware
22:21 41.5680 -80.4970 80° East 572 658 39,000  Level FlightAware
22:21 41.5860 -80.3540 80° East 574 661 39,000  Level FlightAware
22:22 41.6040 -80.2180 80° East 575 662 39,000  Level FlightAware
22:23 41.6240 -80.0540 81° East 574 661 39,000  Level FlightAware
22:23 41.6420 -79.9120 80° East 574 661 39,000  Level FlightAware
22:24 41.6590 -79.7710 81° East 575 662 39,000  Level FlightAware
22:25 41.6930 -79.6290 72° East 600 690 39,000  Level FlightAware
22:25 41.7520 -79.5180 55° Northeast 615 708 39,000  Level FlightAware
22:26 41.8680 -79.3450 48° Northeast 615 708 39,000  Level FlightAware
22:27 41.9330 -79.2490 48° Northeast 615 708 39,000  Level FlightAware
22:28 42.0100 -79.1350 48° Northeast 614 707 39,000  Level FlightAware
22:29 42.1240 -78.9670 48° Northeast 614 707 39,000  Level FlightAware
22:29 42.1930 -78.8420 53° Northeast 605 696 39,000  Level FlightAware
22:30 42.2380 -78.7270 62° Northeast 603 694 39,000  Level FlightAware
22:31 42.2140 -78.5150 99° East 598 688 39,000  Level FlightAware
22:32 42.2610 -78.3730 66° East 598 688 39,000  Level FlightAware
22:32 42.3080 -78.2280 66° East 598 688 39,000  Level FlightAware
22:33 42.3470 -78.1110 66° East 598 688 39,000  Level FlightAware
22:34 42.3850 -77.9950 66° East 598 688 39,000  Level FlightAware
22:34 41.9890 -78.0420 185° South 39,000  Level FlightAware
22:35 41.9460 -78.0020 145° Southeast 387 445 39,000  Level FlightAware
22:35 41.9060 -77.9870 164° South 361 415 39,000  Level FlightAware
22:35 41.8540 -77.9940 186° South 339 390 39,000  Level FlightAware
22:36 41.8240 -78.0160 209° Southwest 338 389 39,000  Level FlightAware
22:36 41.8060 -78.0400 225° Southwest 341 392 39,000  Level FlightAware
22:36 41.7900 -78.0720 236° Southwest 355 409 39,000  Level FlightAware
22:37 41.7770 -78.1520 258° West 395 455 39,000  Level FlightAware
22:38 41.7970 -78.2510 285° West 457 526 39,000  Level FlightAware
22:38 41.8410 -78.3450 302° West 457 526 39,000  Level FlightAware
22:39 41.9430 -78.3350 North 574 661 39,000  Level FlightAware
22:39 41.9860 -78.3230 12° North 602 693 39,000  Level FlightAware
22:40 42.0890 -78.2200 37° Northeast 613 705 39,000  Level FlightAware
22:41 42.1200 -78.0230 78° East 524 603 39,000  Level FlightAware
22:41 42.1070 -77.9160 99° East 524 603 39,000  Level FlightAware
22:42 42.0910 -77.7780 99° East 524 603 39,000 -120 Level FlightAware
22:42 41.9830 -77.8280 199° South 398 458 38,900 -120 Descending FlightAware
22:43 41.9320 -77.7650 137° Southeast 435 501 38,900 60 Level FlightAware
22:44 41.8900 -77.6740 122° Southeast 473 544 39,000 60 Climbing FlightAware
22:45 41.8370 -77.5310 116° Southeast 473 544 39,000  Level FlightAware
22:45 41.8050 -77.4410 115° Southeast 473 544 39,000 -600 Level FlightAware
22:46 41.7517 -77.3063 118° Southeast 472 543 38,300 -960 Descending FlightAware ADS-B
22:47 41.7145 -77.2090 117° Southeast 464 534 37,800 -780 Descending FlightAware ADS-B
22:47 41.6859 -77.1229 114° Southeast 469 540 37,400 -1,080 Descending FlightAware ADS-B
22:48 41.6592 -77.0248 110° East 474 545 36,600 -1,200 Descending FlightAware ADS-B
22:48 41.6364 -76.9387 109° East 471 542 36,100 -780 Descending FlightAware ADS-B
22:49 41.6125 -76.8490 110° East 465 535 35,800 -780 Descending FlightAware ADS-B
22:49 41.5894 -76.7642 110° East 463 533 35,300 -900 Descending FlightAware ADS-B
22:50 41.5670 -76.6813 110° East 460 529 34,900 -300 Descending FlightAware ADS-B
22:50 41.5520 -76.6230 109° East 457 526 35,000  Climbing FlightAware
22:50 41.5402 -76.5837 112° Southeast 457 526 34,900  Descending FlightAware ADS-B
22:51 41.5170 -76.4990 110° East 460 529 35,000  Climbing FlightAware ADS-B
22:52 41.4924 -76.4100 110° East 478 550 34,900 -120 Descending FlightAware ADS-B
22:52 41.4678 -76.3206 110° East 494 568 34,900  Level FlightAware ADS-B
22:53 41.4440 -76.2342 110° East 500 575 34,900  Level FlightAware ADS-B
22:53 41.4195 -76.1453 110° East 495 570 34,900 -120 Level FlightAware ADS-B
22:54 41.3957 -76.0591 110° East 482 555 34,800 -1,620 Descending FlightAware ADS-B
22:54 41.3722 -75.9750 110° East 484 557 33,300 -2,460 Descending FlightAware ADS-B
22:55 41.3484 -75.8907 111° Southeast 481 554 32,300 -2,400 Descending FlightAware ADS-B
22:55 41.3240 -75.8043 111° Southeast 478 550 30,900 -2,640 Descending FlightAware ADS-B
22:56 41.3074 -75.7460 111° Southeast 473 544 30,000 -2,400 Descending FlightAware ADS-B
22:56 41.2841 -75.6713 113° Southeast 461 531 28,900 -2,520 Descending FlightAware ADS-B
22:56 41.2635 -75.6142 116° Southeast 457 526 27,900 -2,760 Descending FlightAware ADS-B
22:57 41.2383 -75.5344 113° Southeast 460 529 26,500 -2,820 Descending FlightAware ADS-B
22:57 41.2127 -75.4515 112° Southeast 456 525 25,000 -2,820 Descending FlightAware ADS-B
22:58 41.1875 -75.3733 113° Southeast 452 520 23,600 -2,040 Descending FlightAware ADS-B
22:58 41.1612 -75.2947 114° Southeast 438 504 22,900 -660 Descending FlightAware ADS-B
22:59 41.1342 -75.2158 114° Southeast 435 501 22,900  Level FlightAware ADS-B
22:59 41.1084 -75.1404 114° Southeast 443 510 22,900 60 Level FlightAware ADS-B
23:00 41.0832 -75.0662 114° Southeast 435 501 23,000 60 Climbing FlightAware ADS-B
23:01 41.0572 -74.9893 114° Southeast 433 498 23,000 -120 Level FlightAware ADS-B
23:01 41.0324 -74.9166 114° Southeast 434 499 22,900 -180 Descending FlightAware ADS-B
23:01 41.0214 -74.8782 111° Southeast 442 509 22,900  Level FlightAware ADS-B
23:02 41.0132 -74.8406 106° East 450 518 22,900 120 Level FlightAware ADS-B
23:02 41.0033 -74.7670 100° East 459 528 23,000 60 Climbing FlightAware ADS-B
23:02 40.9958 -74.6801 96° East 458 527 23,000  Level FlightAware ADS-B
23:03 40.9883 -74.5966 97° East 457 526 23,000 -420 Level FlightAware ADS-B
23:03 40.9796 -74.5119 98° East 446 513 22,600 -1,620 Descending FlightAware ADS-B
23:04 40.9707 -74.4299 98° East 445 512 21,400 -2,400 Descending FlightAware ADS-B
23:04 40.9613 -74.3489 99° East 445 512 20,200 -1,980 Descending FlightAware ADS-B
23:05 40.9518 -74.2671 99° East 434 499 19,400 -1,080 Descending FlightAware ADS-B
23:05 40.9442 -74.2009 99° East 413 475 19,200 -600 Descending FlightAware ADS-B
23:06 40.9398 -74.1669 100° East 401 461 19,000 -780 Descending FlightAware ADS-B
23:06 40.9348 -74.1440 106° East 384 442 18,900 -360 Descending FlightAware ADS-B
23:06 40.9294 -74.1270 113° Southeast 370 426 18,900 360 Level FlightAware ADS-B
23:06 40.9234 -74.1133 120° Southeast 351 404 19,000 720 Climbing FlightAware ADS-B
23:06 40.9223 -74.1113 126° Southeast 349 402 19,000  Level FlightAware ADS-B
23:06 40.9185 -74.1047 127° Southeast 340 391 19,000  Level FlightAware ADS-B
23:06 40.9126 -74.0957 131° Southeast 328 377 19,000  Level FlightAware ADS-B
23:06 40.9075 -74.0894 137° Southeast 316 364 19,000  Level FlightAware ADS-B
23:06 40.9047 -74.0865 142° Southeast 312 359 19,000  Level FlightAware ADS-B
23:06 40.9014 -74.0836 146° Southeast 306 352 19,000  Level FlightAware ADS-B
23:07 40.8892 -74.0745 151° Southeast 288 331 19,000 -360 Level FlightAware ADS-B
23:07 40.8808 -74.0696 156° South 282 325 18,900 -1,140 Descending FlightAware ADS-B
23:07 40.8510 -74.0516 155° Southeast 277 319 18,400 -1,140 Descending FlightAware ADS-B
23:07 40.8437 -74.0470 155° Southeast 277 319 18,300 -1,020 Descending FlightAware ADS-B
23:08 40.8162 -74.0301 155° Southeast 272 313 17,900 -1,140 Descending FlightAware ADS-B
23:08 40.8007 -74.0203 154° Southeast 272 313 17,600 -1,200 Descending FlightAware ADS-B
23:08 40.7818 -74.0084 155° Southeast 268 308 17,300 -1,140 Descending FlightAware ADS-B
23:09 40.7481 -73.9863 154° Southeast 265 305 16,700 -1,080 Descending FlightAware ADS-B
23:09 40.7140 -73.9636 153° Southeast 259 298 16,200 -1,140 Descending FlightAware ADS-B
23:10 40.6889 -73.9472 154° Southeast 254 292 15,700 -1,140 Descending FlightAware ADS-B
23:10 40.6636 -73.9317 155° Southeast 252 290 15,300 -1,260 Descending FlightAware ADS-B
23:10 40.6535 -73.9219 144° Southeast 268 308 15,000 -1,500 Descending FlightAware ADS-B
23:10 40.6486 -73.9140 129° Southeast 284 327 14,900 -660 Descending FlightAware ADS-B
23:10 40.6416 -73.8929 114° Southeast 304 350 14,800 -600 Descending FlightAware ADS-B
23:11 40.6393 -73.8799 103° East 312 359 14,700 -960 Descending FlightAware ADS-B
23:11 40.6307 -73.8213 101° East 308 354 14,200 -720 Descending FlightAware ADS-B
23:12 40.6219 -73.7661 102° East 297 342 14,000 -420 Descending FlightAware ADS-B
23:12 40.6142 -73.7128 101° East 281 323 13,800 -1,140 Descending FlightAware ADS-B
23:13 40.6061 -73.6610 102° East 293 337 12,900 -1,620 Descending FlightAware ADS-B
23:13 40.5972 -73.6086 103° East 292 336 12,200 -1,440 Descending FlightAware ADS-B
23:14 40.5891 -73.5642 103° East 292 336 11,600 -1,500 Descending FlightAware ADS-B
23:14 40.5872 -73.5371 95° East 308 354 11,200 -1,680 Descending FlightAware ADS-B
23:14 40.5877 -73.5316 83° East 311 358 11,100 -1,800 Descending FlightAware ADS-B
23:14 40.5906 -73.5186 74° East 318 366 10,900 -1,680 Descending FlightAware ADS-B
23:14 40.5984 -73.5005 60° Northeast 325 374 10,600 -1,740 Descending FlightAware ADS-B
23:14 40.6093 -73.4856 46° Northeast 328 377 10,300 -2,100 Descending FlightAware ADS-B
23:15 40.6279 -73.4671 37° Northeast 325 374 9,700 -2,340 Descending FlightAware ADS-B
23:15 40.6467 -73.4491 36° Northeast 319 367 9,100 -2,400 Descending FlightAware ADS-B
23:15 40.6675 -73.4291 36° Northeast 313 360 8,400 -2,580 Descending FlightAware ADS-B
23:15 40.6911 -73.4064 36° Northeast 313 360 7,500 -2,040 Descending FlightAware ADS-B
23:16 40.7410 -73.3560 37° Northeast 283 326 6,100 -1,920 Descending FlightAware
23:17 40.7610 -73.3460 21° North 266 306 5,500 -2,100 Descending FlightAware
23:17 40.7870 -73.3540 347° North 211 243 4,700 -1,800 Descending FlightAware
23:17 40.7950 -73.3660 311° West 193 222 4,300 -1,620 Descending FlightAware
23:18 40.8100 -73.3930 306° West 189 217 3,500 -1,200 Descending FlightAware
23:18 40.8250 -73.4180 308° West 192 221 3,200 -480 Descending FlightAware
23:18 40.8300 -73.4320 295° West 180 207 3,200  Level FlightAware
23:19 40.8310 -73.4440 276° West 171 197 3,200  Level FlightAware
23:19 40.8310 -73.4760 270° West 176 203 3,200  Level FlightAware
23:20 40.8310 -73.5070 270° West 173 199 3,200  Level FlightAware
23:20 40.8310 -73.5410 270° West 174 200 3,200  Level FlightAware
23:20 40.8320 -73.5500 278° West 177 204 3,200  Level FlightAware
23:21 40.8320 -73.5800 270° West 184 212 3,200  Level FlightAware
23:21 40.8220 -73.6140 249° West 182 209 3,200  Level FlightAware
23:22 40.8100 -73.6350 233° Southwest 169 194 3,200 -480 Level FlightAware
23:22 40.8000 -73.6450 217° Southwest 164 189 2,900 -840 Descending FlightAware
23:22 40.7820 -73.6590 210° Southwest 155 178 2,600 -780 Descending FlightAware
23:23 40.7660 -73.6720 212° Southwest 149 171 2,200 -480 Descending FlightAware
23:23 40.7480 -73.6860 211° Southwest 146 168 2,200 -360 Level FlightAware
23:24 40.7350 -73.6960 210° Southwest 137 158 1,900 -780 Descending FlightAware
23:24 40.7190 -73.7080 210° Southwest 125 144 1,500 -720 Descending FlightAware
23:24 40.7110 -73.7140 210° Southwest 129 148 1,400 -780 Descending FlightAware
23:25 40.6970 -73.7250 211° Southwest 141 162 1,000 -780 Descending FlightAware
23:25 40.6810 -73.7370 210° Southwest 133 153 700 -720 Descending FlightAware
23:26 40.6650 -73.7500 212° Southwest 128 147 300 -840 Descending FlightAware